createdAt,value
2023-02-27T00:00:50.662Z,73.09766
2023-02-27T00:02:50.664Z,72.11914
2023-02-27T00:04:51.146Z,70.82617
2023-02-27T00:06:50.829Z,70.18164
2023-02-27T00:08:50.904Z,70.95703
2023-02-27T00:11:58.414Z,71.14551
2023-02-27T00:13:58.160Z,71.89648
2023-02-27T00:15:58.359Z,73.16016
2023-02-27T00:17:58.154Z,74.86133
2023-02-27T00:19:58.142Z,75.01758
2023-02-27T00:21:58.249Z,75.78418
2023-02-27T00:23:58.178Z,73.40527
2023-02-27T00:27:28.658Z,73.47852
2023-02-27T00:29:28.656Z,72.74316
2023-02-27T00:31:29.692Z,74.87695
2023-02-27T00:33:28.636Z,74.07227
2023-02-27T00:35:28.632Z,75.01758
2023-02-27T00:37:28.726Z,75.11523
2023-02-27T00:39:28.619Z,75.88379
2023-02-27T00:42:23.748Z,74.69434
2023-02-27T00:44:23.757Z,74.44336
2023-02-27T00:46:23.873Z,74.70313
2023-02-27T00:48:23.825Z,77.18164
2023-02-27T00:50:23.746Z,77.0127
2023-02-27T00:52:23.738Z,78.18066
2023-02-27T00:54:23.761Z,75.66406
2023-02-27T00:57:48.935Z,76.42773
2023-02-27T00:59:48.788Z,74.88477
2023-02-27T01:01:48.765Z,76.79688
2023-02-27T01:03:48.770Z,77.00195
2023-02-27T01:05:48.796Z,75.50781
2023-02-27T01:07:48.762Z,77.18652
2023-02-27T01:09:48.747Z,76.47266
2023-02-27T01:12:34.007Z,76.55273
2023-02-27T01:14:33.970Z,76.18848
2023-02-27T01:16:34.172Z,75.46387
2023-02-27T01:18:33.983Z,74.87695
2023-02-27T01:20:34.051Z,74.12598
2023-02-27T01:22:34.000Z,75.9375
2023-02-27T01:24:34.018Z,74.64941
2023-02-27T01:27:54.082Z,74.38184
2023-02-27T01:29:54.108Z,73.93359
2023-02-27T01:31:54.410Z,73.40723
2023-02-27T01:33:54.057Z,73.30273
2023-02-27T01:35:54.134Z,73.8252
2023-02-27T01:37:54.029Z,74.69531
2023-02-27T01:39:54.086Z,74.67969
2023-02-27T01:42:37.804Z,76.24609
2023-02-27T01:44:37.749Z,75.79785
2023-02-27T01:46:37.807Z,76.35645
2023-02-27T01:48:37.736Z,77.18652
2023-02-27T01:50:37.777Z,76.90234
2023-02-27T01:52:37.753Z,78.02441
2023-02-27T01:54:37.798Z,78.46484
2023-02-27T02:18:05.950Z,88.12695
2023-02-27T02:20:04.589Z,86.73633
2023-02-27T02:22:04.498Z,84.80664
2023-02-27T02:24:04.256Z,83.22949
2023-02-27T02:26:04.299Z,81.52539
2023-02-27T02:28:04.276Z,80.57422
2023-02-27T02:30:04.305Z,80.65625
2023-02-27T02:32:04.400Z,79.61426
2023-02-27T02:34:24.477Z,79.00586
2023-02-27T02:36:24.406Z,79.09082
2023-02-27T02:38:24.442Z,78.60059
2023-02-27T02:40:24.419Z,78.45605
2023-02-27T02:42:24.420Z,78.25
2023-02-27T02:44:24.579Z,77.49609
2023-02-27T02:46:24.706Z,78.15527
2023-02-27T02:48:46.744Z,78.6123
2023-02-27T02:50:46.360Z,78.54297
2023-02-27T02:52:46.304Z,78.03516
2023-02-27T02:54:46.251Z,77.75293
2023-02-27T02:56:46.295Z,77.72168
2023-02-27T02:58:46.342Z,79.38574
2023-02-27T03:00:46.325Z,78.38574
2023-02-27T03:02:46.311Z,77.07715
2023-02-27T03:04:38.032Z,77.92773
2023-02-27T03:06:38.005Z,76.38477
2023-02-27T03:08:37.962Z,76.39844
2023-02-27T03:10:38.125Z,75.78711
2023-02-27T03:12:37.974Z,76.30176
2023-02-27T03:14:38.016Z,76.07617
2023-02-27T03:16:37.917Z,75.73926
2023-02-27T03:19:31.396Z,76.2002
2023-02-27T03:21:31.343Z,75.6748
2023-02-27T03:23:31.486Z,75.92285
2023-02-27T03:25:33.529Z,76.06738
2023-02-27T03:27:31.665Z,76.74023
2023-02-27T03:29:31.544Z,76.73438
2023-02-27T03:31:32.089Z,77.08594
2023-02-27T03:34:29.751Z,77.75879
2023-02-27T03:36:29.686Z,77.51465
2023-02-27T03:38:29.654Z,78.2793
2023-02-27T03:40:29.762Z,78.35547
2023-02-27T03:42:29.688Z,78.29102
2023-02-27T03:44:29.887Z,78.74414
2023-02-27T03:46:30.065Z,78.36914
2023-02-27T03:49:28.567Z,77.99902
2023-02-27T03:51:29.363Z,77.72754
2023-02-27T03:53:28.604Z,78.05078
2023-02-27T03:55:28.542Z,78.07031
2023-02-27T03:57:28.466Z,77.32227
2023-02-27T03:59:28.635Z,77.61133
2023-02-27T04:01:29.241Z,78.3291
2023-02-27T04:03:28.669Z,77.97656
2023-02-27T04:04:44.383Z,78.10254
2023-02-27T04:06:44.477Z,78.47461
2023-02-27T04:08:44.317Z,79.35254
2023-02-27T04:10:44.434Z,79.05566
2023-02-27T04:12:46.172Z,78.99707
2023-02-27T04:14:44.207Z,78.82422
2023-02-27T04:16:44.238Z,78.77246
2023-02-27T04:19:48.028Z,78.32617
2023-02-27T04:21:48.121Z,77.85352
2023-02-27T04:23:48.055Z,77.59277
2023-02-27T04:25:48.113Z,77.72363
2023-02-27T04:27:48.085Z,78.29297
2023-02-27T04:29:48.074Z,77.875
2023-02-27T04:31:48.480Z,77.9873
2023-02-27T04:33:48.094Z,77.68555
2023-02-27T04:35:31.228Z,77.85547
2023-02-27T04:37:31.310Z,77.39844
2023-02-27T04:39:31.271Z,77.74121
2023-02-27T04:41:31.275Z,77.92969
2023-02-27T04:43:31.319Z,77.60156
2023-02-27T04:45:31.303Z,77.44531
2023-02-27T04:47:31.227Z,77.36621
2023-02-27T04:50:46.338Z,77.19141
2023-02-27T04:52:46.282Z,77.01953
2023-02-27T04:54:46.573Z,76.74316
2023-02-27T04:56:46.286Z,76.89355
2023-02-27T04:58:46.400Z,77.1377
2023-02-27T05:00:46.332Z,77.09668
2023-02-27T05:02:46.462Z,77.18164
2023-02-27T05:05:19.049Z,77.0498
2023-02-27T05:07:19.072Z,76.80957
2023-02-27T05:09:19.058Z,76.81641
2023-02-27T05:11:19.162Z,76.79004
2023-02-27T05:13:19.064Z,76.77539
2023-02-27T05:15:19.109Z,76.875
2023-02-27T05:17:19.005Z,76.6543
2023-02-27T05:19:19.084Z,76.18945
2023-02-27T05:21:03.069Z,76.23438
2023-02-27T05:23:02.973Z,76.28711
2023-02-27T05:25:02.935Z,76.43848
2023-02-27T05:27:02.918Z,76.15332
2023-02-27T05:29:02.926Z,75.81934
2023-02-27T05:31:02.927Z,75.87598
2023-02-27T05:33:02.936Z,75.32227
2023-02-27T05:36:06.707Z,75.2998
2023-02-27T05:38:06.640Z,75.3457
2023-02-27T05:40:06.599Z,74.35449
2023-02-27T05:42:06.646Z,74.18359
2023-02-27T05:44:06.915Z,73.63379
2023-02-27T05:46:06.922Z,73.44434
2023-02-27T05:48:06.857Z,73.07715
2023-02-27T05:51:12.127Z,72.48438
2023-02-27T05:53:11.978Z,73.44922
2023-02-27T05:55:12.048Z,71.94922
2023-02-27T05:57:11.978Z,72.05371
2023-02-27T05:59:12.120Z,71.65527
2023-02-27T06:01:12.136Z,70.91797
2023-02-27T06:03:12.237Z,71.05469
2023-02-27T06:06:42.008Z,70.95898
2023-02-27T06:08:41.880Z,70.61328
2023-02-27T06:10:41.866Z,69.81836
2023-02-27T06:12:41.842Z,69.76172
2023-02-27T06:14:41.909Z,69.55273
2023-02-27T06:16:42.003Z,69.27637
2023-02-27T06:18:41.826Z,68.74316
2023-02-27T06:21:48.342Z,68.74219
2023-02-27T06:23:48.335Z,68.09473
2023-02-27T06:25:48.313Z,68.31152
2023-02-27T06:27:48.358Z,67.63184
2023-02-27T06:29:48.302Z,67.83691
2023-02-27T06:31:48.648Z,67.49316
2023-02-27T06:33:48.336Z,67.65137
2023-02-27T06:36:12.773Z,66.88477
2023-02-27T06:38:12.659Z,67.69531
2023-02-27T06:40:12.629Z,66.8916
2023-02-27T06:42:12.804Z,66.91406
2023-02-27T06:44:12.672Z,66.41016
2023-02-27T06:46:12.784Z,65.86328
2023-02-27T06:48:12.687Z,66.75781
2023-02-27T06:50:12.685Z,67.44629
2023-02-27T06:51:30.513Z,66.78711
2023-02-27T06:53:30.491Z,67.125
2023-02-27T06:55:31.230Z,66.92285
2023-02-27T06:57:30.473Z,67.76953
2023-02-27T06:59:30.531Z,67.06348
2023-02-27T07:01:30.714Z,65.66309
2023-02-27T07:03:30.679Z,67.06738
2023-02-27T07:07:37.438Z,67.58594
2023-02-27T07:09:23.020Z,67.2959
2023-02-27T07:11:23.042Z,66.75293
2023-02-27T07:13:22.964Z,65.77246
2023-02-27T07:15:22.979Z,66.35742
2023-02-27T07:17:22.954Z,65.52539
2023-02-27T07:19:23.055Z,64.12402
2023-02-27T07:21:38.109Z,63.64258
2023-02-27T07:23:38.136Z,64.98535
2023-02-27T07:25:38.117Z,64.5459
2023-02-27T07:27:38.026Z,62.60645
2023-02-27T07:29:38.149Z,62.58789
2023-02-27T07:31:38.058Z,61.00293
2023-02-27T07:33:38.160Z,63.43457
2023-02-27T07:35:38.249Z,63.77637
2023-02-27T07:36:56.891Z,61.76465
2023-02-27T07:38:56.865Z,63.06543
2023-02-27T07:40:56.936Z,61.86523
2023-02-27T07:42:56.863Z,61.90234
2023-02-27T07:44:56.873Z,61.64355
2023-02-27T07:46:56.935Z,62.27832
2023-02-27T07:48:57.136Z,62.10254
2023-02-27T07:52:39.893Z,63.00977
2023-02-27T07:54:39.900Z,63.24219
2023-02-27T07:56:39.804Z,64.03125
2023-02-27T07:58:39.746Z,62.5332
2023-02-27T08:00:39.787Z,63.01367
2023-02-27T08:02:40.003Z,62.2793
2023-02-27T08:04:39.810Z,62.46484
2023-02-27T08:07:58.665Z,60.66797
2023-02-27T08:09:58.574Z,60.81934
2023-02-27T08:11:58.565Z,60.39746
2023-02-27T08:14:02.506Z,60.6875
2023-02-27T08:15:58.604Z,58.93457
2023-02-27T08:17:58.617Z,60.04297
2023-02-27T08:19:58.823Z,59.69824
2023-02-27T08:22:17.022Z,57.48828
2023-02-27T08:24:17.063Z,60.80859
2023-02-27T08:26:17.061Z,61.62891
2023-02-27T08:28:17.025Z,60.91797
2023-02-27T08:30:17.132Z,60.08789
2023-02-27T08:32:17.144Z,58.9248
2023-02-27T08:34:17.080Z,59.96094
2023-02-27T08:36:17.068Z,57.46582
2023-02-27T08:37:32.473Z,59.67676
2023-02-27T08:39:32.551Z,57.52344
2023-02-27T08:41:32.874Z,56.89844
2023-02-27T08:43:32.472Z,59.98633
2023-02-27T08:45:32.643Z,57.53711
2023-02-27T08:47:32.694Z,57.30957
2023-02-27T08:49:32.428Z,58.26172
2023-02-27T08:51:32.490Z,54.4541
2023-02-27T08:53:13.837Z,53.84668
2023-02-27T08:55:13.882Z,56.44531
2023-02-27T08:57:13.786Z,59.31055
2023-02-27T08:59:13.718Z,57.17383
2023-02-27T09:01:14.441Z,56.36621
2023-02-27T09:03:14.050Z,54.67676
2023-02-27T09:05:13.740Z,52.37402
2023-02-27T09:08:05.245Z,51.39746
2023-02-27T09:10:05.139Z,50.12305
2023-02-27T09:12:05.706Z,51.68359
2023-02-27T09:14:05.179Z,50.06055
2023-02-27T09:16:05.308Z,50.28711
2023-02-27T09:18:05.140Z,49.78125
2023-02-27T09:20:05.427Z,49.99316
2023-02-27T09:23:05.029Z,47.13574
2023-02-27T09:25:04.845Z,49.29395
2023-02-27T09:27:04.658Z,48.88574
2023-02-27T09:29:04.763Z,48.27637
2023-02-27T09:31:04.542Z,48.25586
2023-02-27T09:33:04.809Z,48.44727
2023-02-27T09:35:04.527Z,48.05371
2023-02-27T09:38:51.180Z,46.06152
2023-02-27T09:40:51.141Z,46.53613
2023-02-27T09:42:51.287Z,47.34766
2023-02-27T09:44:51.316Z,45.00586
2023-02-27T09:46:51.136Z,44.5293
2023-02-27T09:48:51.212Z,44.48828
2023-02-27T09:50:51.175Z,44.25195
2023-02-27T09:53:29.058Z,46.06152
2023-02-27T09:55:29.178Z,43.24609
2023-02-27T09:57:29.087Z,45.49609
2023-02-27T09:59:29.047Z,42.2793
2023-02-27T10:01:29.684Z,43.26465
2023-02-27T10:03:29.273Z,43.72754
2023-02-27T10:05:29.062Z,42.04883
2023-02-27T10:08:59.186Z,43.46387
2023-02-27T10:10:59.072Z,42.32422
2023-02-27T10:12:59.066Z,43.1709
2023-02-27T10:14:59.133Z,41.40918
2023-02-27T10:16:59.204Z,43.1582
2023-02-27T10:18:59.068Z,43.88574
2023-02-27T10:20:59.091Z,43.66113
2023-02-27T10:24:27.712Z,43.11328
2023-02-27T10:26:27.582Z,43.37305
2023-02-27T10:28:27.602Z,44.58105
2023-02-27T10:30:34.369Z,44.62891
2023-02-27T10:32:27.620Z,44.46289
2023-02-27T10:34:27.584Z,43.37695
2023-02-27T10:36:34.915Z,44.39648
2023-02-27T10:39:12.537Z,42.78809
2023-02-27T10:41:12.571Z,42.74219
2023-02-27T10:43:12.567Z,42.68457
2023-02-27T10:45:12.551Z,42.38086
2023-02-27T10:47:12.581Z,42.18262
2023-02-27T10:49:12.595Z,42.94336
2023-02-27T10:51:12.583Z,42.47266
2023-02-27T10:54:17.778Z,41.95996
2023-02-27T10:56:17.816Z,42.44141
2023-02-27T10:58:17.931Z,43.08887
2023-02-27T11:00:17.937Z,43.79102
2023-02-27T11:02:17.889Z,43.1709
2023-02-27T11:04:18.057Z,44.01953
2023-02-27T11:06:17.747Z,43.00977
2023-02-27T11:09:11.940Z,41.70117
2023-02-27T11:11:11.935Z,42.5791
2023-02-27T11:13:11.887Z,41.23535
2023-02-27T11:15:11.924Z,43.12598
2023-02-27T11:17:11.869Z,43.2373
2023-02-27T11:19:14.566Z,43.87598
2023-02-27T11:21:11.950Z,44.7168
2023-02-27T11:23:11.943Z,44.8125
2023-02-27T11:24:39.701Z,44.51563
2023-02-27T11:26:39.660Z,46.8457
2023-02-27T11:28:39.823Z,46.54785
2023-02-27T11:30:39.684Z,47.27148
2023-02-27T11:32:39.641Z,47.28418
2023-02-27T11:34:39.687Z,46.48047
2023-02-27T11:36:39.831Z,47.63965
2023-02-27T11:39:35.757Z,46.11426
2023-02-27T11:41:35.704Z,45.98535
2023-02-27T11:43:35.644Z,47.03711
2023-02-27T11:46:03.987Z,46.95215
2023-02-27T11:47:36.072Z,47.54785
2023-02-27T11:49:35.659Z,45.3291
2023-02-27T11:51:35.671Z,44.38281
2023-02-27T11:55:07.016Z,41.44336
2023-02-27T11:57:06.912Z,44.26953
2023-02-27T11:59:06.949Z,44.77832
2023-02-27T12:01:06.891Z,42.30762
2023-02-27T12:03:07.010Z,41.86914
2023-02-27T12:05:06.949Z,42.73145
2023-02-27T12:07:06.909Z,42.69629
2023-02-27T12:09:54.889Z,42.94824
2023-02-27T12:11:54.866Z,43.01758
2023-02-27T12:13:54.750Z,42.08887
2023-02-27T12:15:55.008Z,43.15137
2023-02-27T12:17:54.773Z,41.96191
2023-02-27T12:19:54.790Z,42.08203
2023-02-27T12:21:54.717Z,40.74512
2023-02-27T12:25:08.412Z,41.16797
2023-02-27T12:27:08.376Z,40.65625
2023-02-27T12:29:08.366Z,41.78711
2023-02-27T12:31:08.505Z,41.93457
2023-02-27T12:33:08.397Z,41.07129
2023-02-27T12:35:08.299Z,41.26855
2023-02-27T12:37:08.371Z,42.04395
2023-02-27T12:40:12.991Z,41.98926
2023-02-27T12:42:12.846Z,41.54688
2023-02-27T12:44:12.842Z,43.05762
2023-02-27T12:46:13.081Z,42.03418
2023-02-27T12:48:12.887Z,42.04004
2023-02-27T12:50:12.965Z,44.1582
2023-02-27T12:52:12.911Z,46.61621
2023-02-27T12:55:36.576Z,46.75195
2023-02-27T12:57:36.736Z,49.12598
2023-02-27T12:59:36.808Z,48.45508
2023-02-27T13:01:36.701Z,47.7998
2023-02-27T13:03:36.704Z,46.06934
2023-02-27T13:05:36.540Z,45.38672
2023-02-27T13:07:36.654Z,42.4082
2023-02-27T13:10:36.136Z,42.52246
2023-02-27T13:12:35.989Z,43.64453
2023-02-27T13:14:36.070Z,42.3125
2023-02-27T13:16:36.091Z,44.27832
2023-02-27T13:18:35.980Z,42.12207
2023-02-27T13:20:35.995Z,43.54102
2023-02-27T13:22:35.985Z,47.12598
2023-02-27T13:26:30.570Z,51.3125
2023-02-27T13:28:30.500Z,54.25781
2023-02-27T13:30:30.742Z,55.87305
2023-02-27T13:32:43.896Z,56.55469
2023-02-27T13:34:30.564Z,57.41602
2023-02-27T13:36:30.752Z,58.24805
2023-02-27T13:38:30.521Z,58.87988
2023-02-27T13:41:36.416Z,59.95605
2023-02-27T13:43:52.040Z,59
2023-02-27T13:45:35.548Z,59.9873
2023-02-27T13:47:35.411Z,60.5625
2023-02-27T13:49:35.348Z,59.49219
2023-02-27T13:51:35.411Z,60.60742
2023-02-27T13:53:35.360Z,60.7793
2023-02-27T13:56:44.208Z,61.11719
2023-02-27T13:58:44.205Z,60.51855
2023-02-27T14:00:44.220Z,61.15625
2023-02-27T14:02:59.654Z,61.54395
2023-02-27T14:04:44.191Z,61.40234
2023-02-27T14:06:44.162Z,61.3125
2023-02-27T14:08:44.226Z,61.34375
2023-02-27T14:11:52.058Z,61.9248
2023-02-27T14:13:52.049Z,61.36426
2023-02-27T14:15:52.198Z,61.99805
2023-02-27T14:18:11.388Z,62.4248
2023-02-27T14:19:52.006Z,63.13184
2023-02-27T14:21:52.031Z,63.0166
2023-02-27T14:23:52.035Z,63.80957
2023-02-27T14:26:56.777Z,63.84277
2023-02-27T14:28:56.696Z,63.12891
2023-02-27T14:30:56.878Z,64.54688
2023-02-27T14:32:56.925Z,64.81543
2023-02-27T14:34:56.850Z,65.21191
2023-02-27T14:36:56.767Z,64.98145
2023-02-27T14:38:56.672Z,66.29102
2023-02-27T14:41:51.027Z,66.78027
2023-02-27T14:43:51.016Z,66.49805
2023-02-27T14:45:51.058Z,66.28906
2023-02-27T14:47:51.046Z,66.12695
2023-02-27T14:49:51.034Z,66.21973
2023-02-27T14:51:50.994Z,66.68262
2023-02-27T14:53:51.865Z,66.60645
2023-02-27T14:56:49.977Z,66.96875
2023-02-27T14:59:04.146Z,67.0332
2023-02-27T15:00:49.758Z,67.5
2023-02-27T15:02:49.559Z,67.6543
2023-02-27T15:04:49.895Z,67.39551
2023-02-27T15:06:49.624Z,67.05371
2023-02-27T15:08:49.862Z,67.50488
2023-02-27T15:12:05.140Z,67.30664
2023-02-27T15:14:00.895Z,67.95996
2023-02-27T15:16:16.479Z,67.65039
2023-02-27T15:18:00.822Z,67.22656
2023-02-27T15:20:00.895Z,68.64648
2023-02-27T15:22:01.894Z,68.19824
2023-02-27T15:24:00.931Z,68.97852
2023-02-27T15:27:15.579Z,68.74805
2023-02-27T15:29:18.463Z,67.91895
2023-02-27T15:31:15.701Z,68.68848
2023-02-27T15:33:15.635Z,68.93555
2023-02-27T15:35:15.716Z,68.58203
2023-02-27T15:37:15.654Z,68.26172
2023-02-27T15:39:15.625Z,68.47168
2023-02-27T15:42:35.553Z,68.48438
2023-02-27T15:44:35.693Z,68.90918
2023-02-27T15:46:36.113Z,68.38574
2023-02-27T15:48:35.544Z,68.37109
2023-02-27T15:50:35.539Z,68.7002
2023-02-27T15:52:35.577Z,68.72461
2023-02-27T15:54:35.591Z,68.71289
2023-02-27T15:58:04.008Z,68.74902
2023-02-27T16:00:01.508Z,68.69043
2023-02-27T16:02:01.491Z,68.80176
2023-02-27T16:04:01.537Z,69.0625
2023-02-27T16:06:01.623Z,69.71387
2023-02-27T16:08:01.402Z,70.28125
2023-02-27T16:10:01.378Z,70.38086
2023-02-27T16:12:38.027Z,70.98047
2023-02-27T16:14:38.037Z,70.75488
2023-02-27T16:16:38.004Z,70.41309
2023-02-27T16:18:38.157Z,71.15039
2023-02-27T16:20:37.859Z,72.3252
2023-02-27T16:22:37.832Z,72.0957
2023-02-27T16:24:37.863Z,72.50391
2023-02-27T16:28:15.329Z,71.99414
2023-02-27T16:30:15.268Z,72.33398
2023-02-27T16:32:15.837Z,72.03027
2023-02-27T16:34:15.717Z,71.80176
2023-02-27T16:36:15.229Z,71.83789
2023-02-27T16:38:15.646Z,71.90039
2023-02-27T16:40:15.749Z,71.69434
2023-02-27T16:42:50.778Z,71.71973
2023-02-27T16:44:50.851Z,71.84668
2023-02-27T16:46:50.878Z,71.62891
2023-02-27T16:48:50.643Z,71.51855
2023-02-27T16:50:50.689Z,71.48828
2023-02-27T16:52:50.691Z,71.54883
2023-02-27T16:54:50.862Z,71.53613
2023-02-27T16:56:50.943Z,71.34375
2023-02-27T16:58:16.523Z,71.24707
2023-02-27T17:00:16.701Z,71.0293
2023-02-27T17:02:16.613Z,71.66504
2023-02-27T17:04:26.252Z,72.04688
2023-02-27T17:06:16.457Z,72.1582
2023-02-27T17:08:16.457Z,72.07227
2023-02-27T17:10:16.519Z,72.16211
2023-02-27T17:13:30.609Z,72.80078
2023-02-27T17:15:30.570Z,72.81641
2023-02-27T17:17:30.586Z,72.84961
2023-02-27T17:19:30.661Z,73.08887
2023-02-27T17:21:30.778Z,72.71387
2023-02-27T17:23:30.627Z,72.54688
2023-02-27T17:25:30.598Z,72.6709
2023-02-27T17:28:27.244Z,73.20996
2023-02-27T17:30:27.283Z,72.97949
2023-02-27T17:32:27.181Z,73.00293
2023-02-27T17:34:27.227Z,73.54688
2023-02-27T17:36:27.827Z,72.80371
2023-02-27T17:38:27.191Z,72.9668
2023-02-27T17:40:27.299Z,72.41699
2023-02-27T17:44:09.632Z,72.8418
2023-02-27T17:46:09.689Z,72.62207
2023-02-27T17:48:09.760Z,72.42676
2023-02-27T17:50:09.621Z,72.22266
2023-02-27T17:52:10.032Z,71.95801
2023-02-27T17:54:09.550Z,72.06055
2023-02-27T17:56:09.964Z,71.96289
2023-02-27T17:59:13.866Z,72.41016
2023-02-27T18:01:14.158Z,72.50098
2023-02-27T18:03:14.288Z,72.58105
2023-02-27T18:05:13.873Z,72.1582
2023-02-27T18:07:14.320Z,72.20117
2023-02-27T18:09:13.935Z,72.45215
2023-02-27T18:11:14.060Z,72.24707
2023-02-27T18:14:30.713Z,72.93359
2023-02-27T18:16:31.185Z,73.24316
2023-02-27T18:18:30.640Z,72.70215
2023-02-27T18:20:30.633Z,72.34766
2023-02-27T18:22:30.716Z,72.84082
2023-02-27T18:24:31.567Z,73.45605
2023-02-27T18:26:33.090Z,73.41602
2023-02-27T18:29:17.309Z,74.06543
2023-02-27T18:31:17.212Z,74.25977
2023-02-27T18:33:17.144Z,75.0625
2023-02-27T18:35:17.156Z,75.1748
2023-02-27T18:37:17.145Z,75.57129
2023-02-27T18:39:17.115Z,75.5332
2023-02-27T18:41:17.059Z,75.65723
2023-02-27T18:44:34.752Z,75.60742
2023-02-27T18:46:35.083Z,75.36523
2023-02-27T18:48:34.668Z,75.83496
2023-02-27T18:50:34.942Z,76.04297
2023-02-27T18:52:37.506Z,75.73047
2023-02-27T18:54:34.750Z,76.00293
2023-02-27T18:56:34.848Z,76.02539
2023-02-27T18:59:41.903Z,75.9043
2023-02-27T19:01:42.181Z,75.70313
2023-02-27T19:03:41.919Z,76.04688
2023-02-27T19:05:41.861Z,75.80762
2023-02-27T19:07:42.118Z,76.09863
2023-02-27T19:09:42.189Z,75.96289
2023-02-27T19:11:41.919Z,75.89844
2023-02-27T19:14:33.944Z,75.75
2023-02-27T19:16:34.036Z,75.61426
2023-02-27T19:18:33.914Z,75.46484
2023-02-27T19:20:33.851Z,75.1875
2023-02-27T19:22:33.843Z,75.17871
2023-02-27T19:24:34.110Z,75.1748
2023-02-27T19:26:34.354Z,75.19043
2023-02-27T19:30:04.321Z,74.77734
2023-02-27T19:32:04.235Z,74.70215
2023-02-27T19:34:04.300Z,74.4248
2023-02-27T19:36:04.305Z,74.41309
2023-02-27T19:38:04.264Z,74.54785
2023-02-27T19:40:04.128Z,74.25488
2023-02-27T19:42:04.161Z,74.25586
2023-02-27T19:45:40.770Z,74.34473
2023-02-27T19:47:40.749Z,73.76465
2023-02-27T19:49:40.851Z,74.00488
2023-02-27T19:51:40.765Z,74.48633
2023-02-27T19:53:40.861Z,74.44238
2023-02-27T19:55:40.737Z,74.33789
2023-02-27T19:57:40.757Z,73.73633
2023-02-27T20:00:14.353Z,74.06445
2023-02-27T20:02:14.269Z,74.35938
2023-02-27T20:04:14.405Z,74.51465
2023-02-27T20:06:14.304Z,74.66504
2023-02-27T20:08:14.258Z,75.7666
2023-02-27T20:10:14.307Z,75.84473
2023-02-27T20:12:14.224Z,76.37402
2023-02-27T20:15:04.314Z,76.9209
2023-02-27T20:17:04.292Z,76.86035
2023-02-27T20:19:04.301Z,76.00488
2023-02-27T20:21:04.345Z,75.67578
2023-02-27T20:23:05.022Z,75.82324
2023-02-27T20:25:04.888Z,75.43359
2023-02-27T20:27:04.513Z,75.18164
2023-02-27T20:29:04.443Z,75.45605
2023-02-27T20:30:50.682Z,75.80371
2023-02-27T20:32:50.605Z,75.74707
2023-02-27T20:34:50.427Z,76.52246
2023-02-27T20:36:50.433Z,76.35059
2023-02-27T20:38:50.429Z,76.19336
2023-02-27T20:40:50.290Z,75.95801
2023-02-27T20:42:50.478Z,76.3877
2023-02-27T20:45:41.370Z,76.78418
2023-02-27T20:47:40.998Z,77.46777
2023-02-27T20:49:41.323Z,77.61816
2023-02-27T20:51:41.052Z,77.56348
2023-02-27T20:53:40.999Z,77.53516
2023-02-27T20:55:41.047Z,77.76758
2023-02-27T20:57:40.967Z,78.02344
2023-02-27T21:01:25.065Z,77.8418
2023-02-27T21:03:26.311Z,77.15625
2023-02-27T21:05:24.865Z,77.31152
2023-02-27T21:07:24.913Z,77.27734
2023-02-27T21:09:24.792Z,77.47949
2023-02-27T21:11:24.853Z,77.19043
2023-02-27T21:13:24.740Z,77.40918
2023-02-27T21:15:58.379Z,83.93359
2023-02-27T21:17:58.258Z,83.55664
2023-02-27T21:19:58.313Z,83.35938
2023-02-27T21:21:58.253Z,82.61426
2023-02-27T21:23:58.241Z,81.00293
2023-02-27T21:25:58.307Z,80.69727
2023-02-27T21:27:58.359Z,80.05859
2023-02-27T21:31:42.405Z,78.65137
2023-02-27T21:33:41.694Z,77.88672
2023-02-27T21:35:41.860Z,77.9834
2023-02-27T21:37:41.749Z,77.22852
2023-02-27T21:39:41.912Z,76.82813
2023-02-27T21:41:41.769Z,77.06738
2023-02-27T21:43:41.798Z,76.86523
2023-02-27T21:47:02.336Z,79.4873
2023-02-27T21:49:02.313Z,81.45996
2023-02-27T21:51:02.379Z,80.72949
2023-02-27T21:53:02.265Z,80.02832
2023-02-27T21:55:02.172Z,80.2002
2023-02-27T21:57:02.169Z,80.25684
2023-02-27T21:59:02.369Z,79.68066
2023-02-27T22:01:21.099Z,78.33691
2023-02-27T22:03:20.950Z,77.66504
2023-02-27T22:05:21.321Z,77.66309
2023-02-27T22:07:21.245Z,78.3623
2023-02-27T22:09:21.313Z,78.08398
2023-02-27T22:11:20.980Z,77.63965
2023-02-27T22:13:21.104Z,77.92773
2023-02-27T22:15:21.368Z,77.25977
2023-02-27T22:16:24.014Z,77.33789
2023-02-27T22:18:23.994Z,77.2666
2023-02-27T22:20:23.990Z,77.4834
2023-02-27T22:22:23.878Z,78.09766
2023-02-27T22:24:23.941Z,78.00977
2023-02-27T22:26:23.857Z,78.40918
2023-02-27T22:28:23.910Z,77.82813
2023-02-27T22:30:23.906Z,77.73633
2023-02-27T22:31:35.445Z,77.93848
2023-02-27T22:33:34.855Z,78.17383
2023-02-27T22:35:34.865Z,78.05273
2023-02-27T22:37:34.803Z,78.1875
2023-02-27T22:39:34.895Z,78.03223
2023-02-27T22:41:34.795Z,78.07129
2023-02-27T22:43:34.798Z,77.57031
2023-02-27T22:45:34.874Z,77.28613
2023-02-27T22:47:07.476Z,76.8916
2023-02-27T22:49:07.461Z,77.0625
2023-02-27T22:51:07.520Z,76.91895
2023-02-27T22:53:07.476Z,76.58301
2023-02-27T22:55:07.433Z,76.99219
2023-02-27T22:57:07.434Z,76.99023
2023-02-27T22:59:07.467Z,76.77539
2023-02-27T23:02:28.242Z,75.5459
2023-02-27T23:04:28.208Z,75.61035
2023-02-27T23:06:28.639Z,75.03223
2023-02-27T23:08:28.391Z,74.52148
2023-02-27T23:10:28.536Z,74.0918
2023-02-27T23:12:28.389Z,73.96387
2023-02-27T23:14:28.331Z,73.76563
2023-02-27T23:17:57.707Z,73.84961
2023-02-27T23:19:40.162Z,73.35156
2023-02-27T23:21:40.067Z,73.30371
2023-02-27T23:23:40.034Z,73.05762
2023-02-27T23:25:40.060Z,73.20508
2023-02-27T23:27:40.039Z,72.67285
2023-02-27T23:29:40.096Z,72.85645
2023-02-27T23:32:51.040Z,72.62305
2023-02-27T23:34:51.025Z,72.63477
2023-02-27T23:36:51.008Z,72.66504
2023-02-27T23:38:50.995Z,72.78516
2023-02-27T23:40:50.984Z,75.25293
2023-02-27T23:42:50.993Z,76.04785
2023-02-27T23:44:51.031Z,75.46387
2023-02-27T23:47:56.642Z,74.46973
2023-02-27T23:49:56.593Z,74.31836
2023-02-27T23:51:56.637Z,74.83887
2023-02-27T23:53:56.551Z,75.26758
2023-02-27T23:55:56.613Z,75.40332
2023-02-27T23:57:56.574Z,74.97266
2023-02-27T23:59:56.602Z,75.06152
